SWR178 ESGG-LFPG
Flight info
| Callsign | SWR178 |
|---|---|
| Flight time | N/A |
| Altitude | 34000 |
| Route | VADIN M852 ALS Z703 KESUR DCT BUB DCT NILEM/N0445F350 DCT MOPIL |
| Aircraft | A321/M-SDE3FGHIRWY/LB1 |
Departure
| Time | N/A |
|---|---|
| Airport | Göteborg Landvetter Airport (ESGG) |
Arrival
| Time | 2026-05-01 08:05 |
|---|---|
| Airport | Charles de Gaulle International Airport (LFPG) |
| Time | Latitude | Longitude | Altitude | Speed | Heading |
|---|---|---|---|---|---|
| 2026-05-01 07:23 | 51.53187 | 5.31047 | 34320 ft | 435 kts | 217° |
| 2026-05-01 07:24 | 51.46018 | 5.22107 | 34335 ft | 434 kts | 217° |
| 2026-05-01 07:24 | 51.41251 | 5.16179 | 34329 ft | 434 kts | 217° |
| 2026-05-01 07:25 | 51.36476 | 5.10260 | 34319 ft | 434 kts | 217° |
| 2026-05-01 07:25 | 51.31863 | 5.04553 | 34306 ft | 434 kts | 217° |
| 2026-05-01 07:26 | 51.26923 | 4.98479 | 34314 ft | 434 kts | 217° |
| 2026-05-01 07:26 | 51.22136 | 4.92614 | 34308 ft | 434 kts | 217° |
| 2026-05-01 07:27 | 51.17350 | 4.86741 | 34306 ft | 434 kts | 217° |
| 2026-05-01 07:27 | 51.12563 | 4.80875 | 34308 ft | 434 kts | 217° |
| 2026-05-01 07:28 | 51.07764 | 4.75031 | 34308 ft | 435 kts | 217° |
| 2026-05-01 07:28 | 51.02963 | 4.69200 | 34311 ft | 434 kts | 217° |
| 2026-05-01 07:29 | 50.98167 | 4.63385 | 34315 ft | 433 kts | 216° |
| 2026-05-01 07:29 | 50.93374 | 4.57605 | 34315 ft | 433 kts | 216° |
| 2026-05-01 07:30 | 50.88331 | 4.52476 | 34316 ft | 430 kts | 203° |
| 2026-05-01 07:30 | 50.82815 | 4.48632 | 34310 ft | 430 kts | 203° |
| 2026-05-01 07:31 | 50.77353 | 4.44803 | 34307 ft | 430 kts | 202° |
| 2026-05-01 07:32 | 50.63679 | 4.35283 | 34291 ft | 431 kts | 202° |
| 2026-05-01 07:33 | 50.55343 | 4.29515 | 33670 ft | 435 kts | 202° |
| 2026-05-01 07:33 | 50.52584 | 4.27612 | 33328 ft | 431 kts | 202° |
| 2026-05-01 07:33 | 50.47134 | 4.23861 | 32258 ft | 424 kts | 202° |
| 2026-05-01 07:34 | 50.44437 | 4.22004 | 31735 ft | 422 kts | 202° |
| 2026-05-01 07:34 | 50.39143 | 4.18367 | 30718 ft | 416 kts | 202° |
| 2026-05-01 07:34 | 50.36496 | 4.16549 | 30179 ft | 414 kts | 202° |
| 2026-05-01 07:35 | 50.33874 | 4.14749 | 29654 ft | 409 kts | 201° |
| 2026-05-01 07:35 | 50.31264 | 4.13042 | 29152 ft | 404 kts | 197° |
| 2026-05-01 07:35 | 50.28572 | 4.11963 | 28660 ft | 397 kts | 187° |
| 2026-05-01 07:35 | 50.25840 | 4.11585 | 28172 ft | 391 kts | 181° |
| 2026-05-01 07:36 | 50.23139 | 4.11402 | 27701 ft | 387 kts | 181° |
| 2026-05-01 07:36 | 50.20463 | 4.11210 | 27233 ft | 383 kts | 181° |
| 2026-05-01 07:36 | 50.17814 | 4.11007 | 26780 ft | 379 kts | 181° |
| 2026-05-01 07:36 | 50.15193 | 4.10803 | 26333 ft | 375 kts | 181° |
| 2026-05-01 07:37 | 50.09987 | 4.10410 | 25720 ft | 377 kts | 181° |
| 2026-05-01 07:37 | 50.07402 | 4.10220 | 25427 ft | 376 kts | 181° |
| 2026-05-01 07:37 | 50.04791 | 4.10031 | 25126 ft | 375 kts | 181° |
| 2026-05-01 07:38 | 50.02187 | 4.09843 | 24827 ft | 374 kts | 181° |
| 2026-05-01 07:38 | 49.99596 | 4.09651 | 24535 ft | 372 kts | 181° |
| 2026-05-01 07:38 | 49.94450 | 4.09261 | 23940 ft | 368 kts | 181° |
| 2026-05-01 07:39 | 49.91898 | 4.09072 | 23620 ft | 367 kts | 181° |
| 2026-05-01 07:39 | 49.89353 | 4.08885 | 23326 ft | 365 kts | 181° |
| 2026-05-01 07:39 | 49.84306 | 4.08516 | 22749 ft | 362 kts | 181° |
| 2026-05-01 07:40 | 49.81797 | 4.08336 | 22456 ft | 360 kts | 181° |
| 2026-05-01 07:40 | 49.79299 | 4.08157 | 22171 ft | 359 kts | 181° |
| 2026-05-01 07:40 | 49.76814 | 4.07975 | 21888 ft | 357 kts | 181° |
| 2026-05-01 07:40 | 49.74335 | 4.07792 | 21601 ft | 356 kts | 181° |
| 2026-05-01 07:41 | 49.71868 | 4.07612 | 21323 ft | 354 kts | 181° |
| 2026-05-01 07:41 | 49.69411 | 4.07433 | 21039 ft | 352 kts | 181° |
| 2026-05-01 07:41 | 49.64535 | 4.07064 | 20480 ft | 350 kts | 183° |
| 2026-05-01 07:42 | 49.62147 | 4.06344 | 20202 ft | 351 kts | 197° |
| 2026-05-01 07:42 | 49.59936 | 4.04748 | 19917 ft | 353 kts | 210° |
| 2026-05-01 07:42 | 49.58033 | 4.02367 | 19628 ft | 355 kts | 224° |
| 2026-05-01 07:42 | 49.56544 | 3.99330 | 19344 ft | 356 kts | 234° |
| 2026-05-01 07:43 | 49.55206 | 3.96119 | 19058 ft | 355 kts | 234° |
| 2026-05-01 07:43 | 49.53870 | 3.92929 | 18773 ft | 353 kts | 234° |
| 2026-05-01 07:43 | 49.51205 | 3.86620 | 18184 ft | 350 kts | 234° |
| 2026-05-01 07:44 | 49.48554 | 3.80363 | 17612 ft | 348 kts | 235° |
| 2026-05-01 07:44 | 49.46745 | 3.73477 | 17053 ft | 350 kts | 253° |
| 2026-05-01 07:45 | 49.46145 | 3.69854 | 16774 ft | 349 kts | 253° |
| 2026-05-01 07:45 | 49.45538 | 3.66246 | 16496 ft | 348 kts | 253° |
| 2026-05-01 07:45 | 49.44929 | 3.62648 | 16223 ft | 347 kts | 253° |
| 2026-05-01 07:45 | 49.44321 | 3.59065 | 16036 ft | 346 kts | 253° |
| 2026-05-01 07:46 | 49.43712 | 3.55494 | 15841 ft | 345 kts | 252° |
| 2026-05-01 07:46 | 49.43100 | 3.51931 | 15639 ft | 344 kts | 252° |
| 2026-05-01 07:46 | 49.41887 | 3.44834 | 15288 ft | 343 kts | 252° |
| 2026-05-01 07:47 | 49.41274 | 3.41297 | 15257 ft | 342 kts | 252° |
| 2026-05-01 07:47 | 49.40660 | 3.37772 | 15257 ft | 343 kts | 252° |
| 2026-05-01 07:47 | 49.40042 | 3.34235 | 15259 ft | 343 kts | 252° |
| 2026-05-01 07:47 | 49.39424 | 3.30704 | 15258 ft | 343 kts | 252° |
| 2026-05-01 07:48 | 49.38187 | 3.23640 | 15261 ft | 343 kts | 252° |
| 2026-05-01 07:48 | 49.37565 | 3.20105 | 15255 ft | 342 kts | 252° |
| 2026-05-01 07:48 | 49.36947 | 3.16584 | 15256 ft | 342 kts | 252° |
| 2026-05-01 07:49 | 49.36328 | 3.13060 | 15257 ft | 342 kts | 252° |
| 2026-05-01 07:49 | 49.34696 | 3.06262 | 15260 ft | 340 kts | 240° |
| 2026-05-01 07:49 | 49.33635 | 3.03022 | 15258 ft | 339 kts | 240° |
| 2026-05-01 07:50 | 49.32572 | 2.99790 | 15253 ft | 340 kts | 240° |
| 2026-05-01 07:50 | 49.30418 | 2.93370 | 14808 ft | 337 kts | 239° |
| 2026-05-01 07:50 | 49.29332 | 2.90188 | 14571 ft | 336 kts | 239° |
| 2026-05-01 07:51 | 49.28247 | 2.87019 | 14337 ft | 335 kts | 239° |
| 2026-05-01 07:51 | 49.27169 | 2.83864 | 14099 ft | 334 kts | 239° |
| 2026-05-01 07:51 | 49.26092 | 2.80708 | 13837 ft | 333 kts | 240° |
| 2026-05-01 07:52 | 49.23982 | 2.74515 | 13184 ft | 325 kts | 240° |
| 2026-05-01 07:52 | 49.22940 | 2.71455 | 12784 ft | 322 kts | 240° |
| 2026-05-01 07:52 | 49.21907 | 2.68427 | 12381 ft | 320 kts | 240° |
| 2026-05-01 07:53 | 49.19854 | 2.62429 | 11593 ft | 317 kts | 240° |
| 2026-05-01 07:53 | 49.18852 | 2.59436 | 11187 ft | 316 kts | 245° |
| 2026-05-01 07:53 | 49.18197 | 2.56227 | 10790 ft | 317 kts | 258° |
| 2026-05-01 07:53 | 49.18012 | 2.52884 | 10471 ft | 313 kts | 267° |
| 2026-05-01 07:54 | 49.17891 | 2.46460 | 10235 ft | 293 kts | 266° |
| 2026-05-01 07:55 | 49.17574 | 2.37217 | 9837 ft | 288 kts | 265° |
| 2026-05-01 07:55 | 49.17356 | 2.31132 | 9096 ft | 285 kts | 265° |
| 2026-05-01 07:56 | 49.16632 | 2.22286 | 8042 ft | 277 kts | 244° |
| 2026-05-01 07:56 | 49.14985 | 2.16999 | 7356 ft | 275 kts | 242° |
| 2026-05-01 07:57 | 49.14148 | 2.14370 | 7010 ft | 274 kts | 242° |
| 2026-05-01 07:57 | 49.12285 | 2.09368 | 6354 ft | 268 kts | 220° |
| 2026-05-01 07:58 | 49.08973 | 2.07676 | 6003 ft | 247 kts | 183° |
| 2026-05-01 07:58 | 49.06242 | 2.07444 | 5715 ft | 229 kts | 182° |
| 2026-05-01 07:59 | 49.03108 | 2.07669 | 5031 ft | 226 kts | 156° |
| 2026-05-01 07:59 | 49.00924 | 2.10896 | 4633 ft | 213 kts | 122° |
| 2026-05-01 08:00 | 49.00646 | 2.19649 | 4008 ft | 205 kts | 88° |
| 2026-05-01 08:01 | 49.00999 | 2.25853 | 3809 ft | 193 kts | 87° |
| 2026-05-01 08:01 | 49.01113 | 2.27881 | 3559 ft | 190 kts | 87° |
| 2026-05-01 08:01 | 49.01224 | 2.29862 | 3305 ft | 185 kts | 87° |
| 2026-05-01 08:02 | 49.01438 | 2.33674 | 2828 ft | 175 kts | 87° |
| 2026-05-01 08:02 | 49.01539 | 2.35512 | 2594 ft | 173 kts | 86° |
| 2026-05-01 08:03 | 49.01746 | 2.39156 | 2145 ft | 172 kts | 88° |
| 2026-05-01 08:03 | 49.01843 | 2.40963 | 1926 ft | 170 kts | 87° |
| 2026-05-01 08:03 | 49.02031 | 2.44408 | 1464 ft | 154 kts | 87° |
| 2026-05-01 08:04 | 49.02202 | 2.47584 | 1030 ft | 147 kts | 88° |
| 2026-05-01 08:04 | 49.02368 | 2.50619 | 640 ft | 142 kts | 88° |
| 2026-05-01 08:05 | 49.02530 | 2.53548 | 358 ft | 128 kts | 83° |
| 2026-05-01 08:05 | 49.02584 | 2.54589 | 355 ft | 66 kts | 85° |
| 2026-05-01 08:05 | 49.02606 | 2.55062 | 360 ft | 32 kts | 90° |
| 2026-05-01 08:06 | 49.02494 | 2.55539 | 361 ft | 7 kts | 115° |
| 2026-05-01 08:06 | 49.02461 | 2.55595 | 357 ft | 0 kts | 149° |
| 2026-05-01 08:07 | 49.02422 | 2.55611 | 357 ft | 4 kts | 172° |
| 2026-05-01 08:08 | 49.02401 | 2.55614 | 354 ft | 0 kts | 174° |
| 2026-05-01 08:09 | 49.02358 | 2.55620 | 356 ft | 14 kts | 175° |
| 2026-05-01 08:09 | 49.02242 | 2.55633 | 354 ft | 17 kts | 175° |
| 2026-05-01 08:09 | 49.02133 | 2.55648 | 356 ft | 14 kts | 175° |
| 2026-05-01 08:10 | 49.01932 | 2.55672 | 362 ft | 11 kts | 180° |
| 2026-05-01 08:10 | 49.01876 | 2.55367 | 358 ft | 26 kts | 265° |
| 2026-05-01 08:11 | 49.01842 | 2.54738 | 354 ft | 27 kts | 265° |
| 2026-05-01 08:11 | 49.01816 | 2.54233 | 360 ft | 15 kts | 265° |
| 2026-05-01 08:12 | 49.01742 | 2.54115 | 361 ft | 5 kts | 207° |
| 2026-05-01 08:12 | 49.01718 | 2.54095 | 359 ft | 2 kts | 208° |
| 2026-05-01 08:12 | 49.01714 | 2.54091 | 362 ft | 0 kts | 208° |